Time;durP1;ratioP1;P1;durP2;ratioP2;P2;SDS_P1;SDS_P2;PMS_P1;PMS_P2;Temp;Humidity;BMP_temperature;BMP_pressure;BME280_temperature;BME280_humidity;BME280_pressure;Samples;Min_cycle;Max_cycle;Signal;HPM_P1;HPM_P2
2024/04/03 00:02:03;;;;;;;10.80;3.45;;;;;;;8.53;100.00;100542.66;4976927;28;20131;-88
2024/04/03 00:04:28;;;;;;;9.45;3.28;;;;;;;8.44;100.00;100531.41;4977185;28;20316;-87
2024/04/03 00:06:54;;;;;;;8.55;3.25;;;;;;;8.61;100.00;100555.78;4964249;28;20033;-87
2024/04/03 00:09:19;;;;;;;6.50;3.03;;;;;;;8.59;100.00;100552.47;4963013;28;20148;-87
2024/04/03 00:11:45;;;;;;;7.63;3.45;;;;;;;8.56;100.00;100544.94;4976587;28;20030;-87
2024/04/03 00:14:10;;;;;;;4.90;2.80;;;;;;;8.58;100.00;100554.31;4992187;28;20461;-86
2024/04/03 00:16:35;;;;;;;8.85;3.53;;;;;;;8.65;100.00;100562.31;4992309;28;20885;-88
2024/04/03 00:19:01;;;;;;;6.47;3.50;;;;;;;8.49;100.00;100532.44;4977522;28;20117;-86
2024/04/03 00:21:26;;;;;;;7.55;3.20;;;;;;;8.59;100.00;100553.31;4974230;28;20021;-86
2024/04/03 00:23:54;;;;;;;9.98;3.20;;;;;;;8.57;100.00;100541.25;4965807;28;20358;-86
2024/04/03 00:26:19;;;;;;;7.35;3.63;;;;;;;8.53;100.00;100534.72;4959527;28;20102;-87
2024/04/03 00:28:44;;;;;;;9.88;3.55;;;;;;;8.50;100.00;100531.41;4977637;28;20040;-87
2024/04/03 00:31:10;;;;;;;9.25;3.67;;;;;;;8.48;100.00;100522.84;4975275;28;20519;-85
2024/04/03 00:33:35;;;;;;;8.77;3.45;;;;;;;8.60;100.00;100546.16;4961753;28;20428;-86
2024/04/03 00:36:00;;;;;;;10.70;3.75;;;;;;;8.48;100.00;100527.31;4978203;28;20137;-86
2024/04/03 00:38:27;;;;;;;6.20;3.42;;;;;;;8.56;100.00;100545.75;4975456;28;20083;-85
2024/04/03 00:40:54;;;;;;;5.93;3.90;;;;;;;8.47;100.00;100525.69;4976668;28;20030;-86
2024/04/03 00:43:19;;;;;;;9.40;4.50;;;;;;;8.42;100.00;100520.13;4975250;28;20084;-87
2024/04/03 00:45:45;;;;;;;7.03;3.78;;;;;;;8.11;100.00;100470.97;4989633;28;20384;-86
2024/04/03 00:48:10;;;;;;;6.25;3.60;;;;;;;8.39;100.00;100515.22;4974335;28;20040;-87
2024/04/03 00:50:36;;;;;;;7.72;3.53;;;;;;;8.51;100.00;100518.97;4975703;28;20428;-87
2024/04/03 00:53:01;;;;;;;5.88;4.18;;;;;;;8.44;100.00;100515.47;4973842;28;20030;-88
2024/04/03 00:55:26;;;;;;;12.27;4.65;;;;;;;8.38;100.00;100503.00;4967507;28;20034;-87
2024/04/03 00:57:52;;;;;;;8.48;4.05;;;;;;;8.47;100.00;100510.59;4977051;28;20094;-88
2024/04/03 01:00:18;;;;;;;7.05;4.47;;;;;;;8.25;100.00;100482.47;4970868;28;20342;-87
2024/04/03 01:02:43;;;;;;;11.77;4.40;;;;;;;8.25;100.00;100484.28;4954965;28;20178;-88
2024/04/03 01:05:08;;;;;;;9.68;4.25;;;;;;;8.22;100.00;100480.22;4977166;28;20034;-86
2024/04/03 01:07:36;;;;;;;10.88;5.50;;;;;;;8.44;100.00;100512.84;4965402;28;20130;-87
2024/04/03 01:10:01;;;;;;;16.20;4.88;;;;;;;8.37;100.00;100501.34;4973377;28;20029;-88
2024/04/03 01:12:32;;;;;;;12.38;4.85;;;;;;;8.34;100.00;100488.44;4977649;28;20908;-87
2024/04/03 01:14:57;;;;;;;9.65;5.18;;;;;;;8.25;100.00;100479.81;4962963;28;20037;-87
2024/04/03 01:17:22;;;;;;;8.60;4.78;;;;;;;8.31;100.00;100483.53;4960752;28;20036;-87
2024/04/03 01:19:49;;;;;;;10.18;4.40;;;;;;;8.30;100.00;100487.19;4978365;28;20033;-87
2024/04/03 01:22:14;;;;;;;9.70;5.47;;;;;;;8.24;100.00;100462.28;4971891;28;20811;-87
2024/04/03 01:24:40;;;;;;;11.15;5.15;;;;;;;8.30;100.00;100479.25;4959091;28;20033;-87
2024/04/03 01:27:05;;;;;;;10.77;5.40;;;;;;;8.46;100.00;100493.06;4977913;28;20040;-88
2024/04/03 01:29:31;;;;;;;9.55;5.63;;;;;;;8.19;100.00;100459.41;4980334;28;20142;-88
2024/04/03 01:31:56;;;;;;;7.30;5.28;;;;;;;8.39;100.00;100478.09;4976265;28;20377;-87
2024/04/03 01:34:22;;;;;;;7.55;4.80;;;;;;;8.41;100.00;100487.50;4964184;28;20428;-87
2024/04/03 01:36:47;;;;;;;7.15;5.10;;;;;;;8.43;100.00;100482.03;4973716;28;20277;-89
2024/04/03 01:39:15;;;;;;;8.82;5.88;;;;;;;8.40;100.00;100474.44;4994372;28;20069;-89
2024/04/03 01:41:41;;;;;;;16.55;5.90;;;;;;;8.41;100.00;100468.94;4975247;28;20036;-88
2024/04/03 01:44:06;;;;;;;8.48;6.00;;;;;;;8.39;100.00;100457.72;4962619;28;20059;-88
2024/04/03 01:46:32;;;;;;;7.60;5.45;;;;;;;8.46;100.00;100471.00;4992902;28;20503;-88
2024/04/03 01:48:57;;;;;;;10.82;6.38;;;;;;;8.55;100.00;100466.38;4962145;28;20316;-88
2024/04/03 01:51:23;;;;;;;6.82;5.55;;;;;;;8.51;100.00;100455.31;4977250;28;20041;-88
2024/04/03 01:53:48;;;;;;;7.15;5.68;;;;;;;8.39;100.00;100425.88;4977772;28;20147;-88
2024/04/03 01:56:14;;;;;;;10.30;6.15;;;;;;;8.49;100.00;100441.44;4994135;28;20033;-88
2024/04/03 01:58:39;;;;;;;8.77;6.55;;;;;;;8.48;100.00;100437.97;4965006;28;20516;-88
2024/04/03 02:01:04;;;;;;;11.05;5.57;;;;;;;8.62;100.00;100433.56;4959979;28;20581;-89
2024/04/03 02:03:30;;;;;;;8.85;6.00;;;;;;;8.52;100.00;100421.69;4960717;28;20038;-88
2024/04/03 02:05:55;;;;;;;8.13;5.63;;;;;;;8.59;100.00;100425.97;4960016;28;20510;-89
2024/04/03 02:08:21;;;;;;;8.32;6.00;;;;;;;8.12;100.00;100353.31;4975973;28;20025;-88
2024/04/03 02:10:46;;;;;;;10.63;6.57;;;;;;;8.51;100.00;100426.13;4971253;28;20040;-87
2024/04/03 02:13:12;;;;;;;9.30;6.45;;;;;;;8.32;100.00;100390.53;4970817;28;20033;-88
2024/04/03 02:15:38;;;;;;;9.20;7.07;;;;;;;8.58;100.00;100437.59;4957491;28;21060;-88
2024/04/03 02:18:04;;;;;;;9.10;6.78;;;;;;;8.59;100.00;100425.16;4987892;28;20025;-89
2024/04/03 02:20:29;;;;;;;11.52;6.78;;;;;;;8.53;100.00;100407.41;4958394;28;20022;-90
2024/04/03 02:22:55;;;;;;;10.82;7.57;;;;;;;8.58;100.00;100400.47;4970077;28;20029;-88
2024/04/03 02:25:20;;;;;;;10.63;7.22;;;;;;;8.60;100.00;100403.78;4986428;28;20033;-88
2024/04/03 02:27:46;;;;;;;9.48;7.05;;;;;;;8.70;100.00;100408.69;4959901;28;20030;-88
2024/04/03 02:30:11;;;;;;;9.10;6.50;;;;;;;8.60;100.00;100393.16;4968287;28;20497;-87
2024/04/03 02:32:37;;;;;;;8.07;6.90;;;;;;;8.71;100.00;100405.03;4973523;28;20195;-87
2024/04/03 02:35:03;;;;;;;11.82;7.70;;;;;;;8.65;100.00;100390.72;4974788;28;21350;-89
2024/04/03 02:37:28;;;;;;;9.80;8.27;;;;;;;8.80;100.00;100390.56;4959902;28;20815;-89
2024/04/03 02:39:55;;;;;;;9.73;7.50;;;;;;;8.74;100.00;100386.88;4957306;28;20029;-89
2024/04/03 02:42:20;;;;;;;9.18;7.32;;;;;;;8.60;100.00;100366.63;4960473;28;20116;-89
2024/04/03 02:44:45;;;;;;;8.25;7.13;;;;;;;8.67;100.00;100372.75;4977143;28;20280;-89
2024/04/03 02:47:11;;;;;;;10.60;7.93;;;;;;;8.64;100.00;100369.69;4974501;28;20087;-87
2024/04/03 02:49:37;;;;;;;11.25;7.65;;;;;;;8.61;100.00;100359.50;4961782;28;20034;-90
2024/04/03 02:52:03;;;;;;;8.48;6.80;;;;;;;8.66;100.00;100357.84;4973634;28;20025;-89
2024/04/03 02:54:28;;;;;;;12.85;7.25;;;;;;;8.65;100.00;100363.38;4976815;28;20999;-90
2024/04/03 02:56:54;;;;;;;9.30;7.00;;;;;;;8.66;100.00;100352.56;4977065;28;20563;-89
2024/04/03 02:59:19;;;;;;;8.00;6.43;;;;;;;8.76;100.00;100360.94;4975524;28;20653;-89
2024/04/03 03:01:44;;;;;;;7.95;6.20;;;;;;;8.88;100.00;100369.16;4973334;28;20056;-88
2024/04/03 03:04:10;;;;;;;9.15;6.20;;;;;;;8.65;100.00;100326.22;4976586;28;20037;-87
2024/04/03 03:06:35;;;;;;;6.63;5.97;;;;;;;8.72;100.00;100337.69;4974446;28;20681;-88
2024/04/03 03:09:01;;;;;;;8.90;5.40;;;;;;;8.72;100.00;100332.38;4973447;28;21324;-88
2024/04/03 03:11:26;;;;;;;7.32;5.68;;;;;;;8.88;100.00;100358.53;4984624;28;20139;-87
2024/04/03 03:13:51;;;;;;;6.90;5.75;;;;;;;8.65;100.00;100321.75;4963888;28;20393;-88
2024/04/03 03:16:21;;;;;;;7.07;5.57;;;;;;;8.81;100.00;100339.13;4992537;28;20038;-87
2024/04/03 03:18:47;;;;;;;5.35;4.82;;;;;;;8.79;100.00;100333.22;4993375;28;20034;-88
2024/04/03 03:21:12;;;;;;;8.35;5.00;;;;;;;8.85;100.00;100342.19;4977435;28;20025;-88
2024/04/03 03:23:37;;;;;;;6.43;4.55;;;;;;;8.76;100.00;100323.78;4962308;28;20032;-88
2024/04/03 03:26:03;;;;;;;6.40;4.85;;;;;;;8.79;100.00;100333.22;4980678;28;20034;-87
2024/04/03 03:28:28;;;;;;;8.65;4.10;;;;;;;8.83;100.00;100307.91;4981360;28;20503;-90
2024/04/03 03:30:54;;;;;;;6.25;4.65;;;;;;;8.85;100.00;100320.97;4977443;28;20037;-89
2024/04/03 03:33:19;;;;;;;5.22;4.13;;;;;;;8.89;100.00;100333.63;4980473;28;20049;-88
2024/04/03 03:35:58;;;;;;;6.80;3.75;;;;;;;8.81;100.00;100319.75;4979236;28;20057;-88
2024/04/03 03:38:24;;;;;;;3.83;3.45;;;;;;;8.68;100.00;100308.06;4984934;28;20288;-88
2024/04/03 03:40:51;;;;;;;4.80;3.95;;;;;;;8.90;100.00;100321.19;4970769;28;20469;-86
2024/04/03 03:43:17;;;;;;;4.72;3.65;;;;;;;8.64;100.00;100280.31;4984246;28;20025;-89
2024/04/03 03:45:44;;;;;;;5.22;3.55;;;;;;;8.82;100.00;100310.75;4967060;28;20037;-90
2024/04/03 03:48:10;;;;;;;8.83;3.53;;;;;;;8.78;100.00;100308.53;4973716;28;20369;-87
2024/04/03 03:53:20;;;;;;;4.22;3.08;;;;;;;8.75;100.00;100292.16;4984526;28;20558;-88
2024/04/03 03:55:45;;;;;;;5.40;2.60;;;;;;;8.90;100.00;100305.25;4981496;28;20088;-88
2024/04/03 03:58:11;;;;;;;2.50;2.28;;;;;;;8.89;100.00;100307.09;4979722;28;20040;-89
2024/04/03 04:00:36;;;;;;;4.10;2.63;;;;;;;8.70;100.00;100297.28;4962847;28;20067;-88
2024/04/03 04:03:01;;;;;;;2.42;2.20;;;;;;;8.87;100.00;100295.06;4976921;28;20052;-89
2024/04/03 04:05:27;;;;;;;3.10;2.80;;;;;;;8.48;100.00;100264.78;4965360;28;20259;-88
2024/04/03 04:07:52;;;;;;;4.20;2.63;;;;;;;8.54;100.00;100290.50;4979367;28;20163;-88
2024/04/03 04:10:17;;;;;;;3.28;2.67;;;;;;;8.54;100.00;100282.53;4990385;28;20126;-88
2024/04/03 04:12:43;;;;;;;3.63;2.58;;;;;;;8.50;100.00;100290.06;4979414;28;20033;-85
2024/04/03 04:15:08;;;;;;;3.53;2.70;;;;;;;8.60;100.00;100307.44;4967112;28;20128;-88
2024/04/03 04:17:34;;;;;;;2.75;2.47;;;;;;;8.38;100.00;100283.72;4977482;28;20316;-89
2024/04/03 04:19:59;;;;;;;3.85;2.30;;;;;;;8.30;100.00;100289.16;4963820;28;20034;-87
2024/04/03 04:22:25;;;;;;;4.57;2.78;;;;;;;8.37;100.00;100290.06;4964079;28;20893;-87
2024/04/03 04:24:51;;;;;;;3.25;2.72;;;;;;;8.28;100.00;100267.34;4978300;28;20523;-88
2024/04/03 04:27:16;;;;;;;4.35;2.38;;;;;;;7.99;100.00;100271.09;4992223;28;20512;-89
2024/04/03 04:29:42;;;;;;;2.42;2.22;;;;;;;8.11;100.00;100296.03;4965369;28;20047;-89
2024/04/03 04:32:09;;;;;;;4.40;2.55;;;;;;;8.19;100.00;100285.28;4964540;28;20380;-87
2024/04/03 04:34:38;;;;;;;4.50;2.72;;;;;;;8.49;100.00;100292.94;4976363;28;21059;-89
2024/04/03 04:37:04;;;;;;;4.03;2.42;;;;;;;8.47;100.00;100279.88;4962326;28;20045;-88
2024/04/03 04:39:30;;;;;;;2.45;2.25;;;;;;;8.36;100.00;100279.66;4981770;28;20200;-87
2024/04/03 04:41:55;;;;;;;3.10;2.40;;;;;;;8.37;100.00;100282.09;4961870;28;20303;-90
2024/04/03 04:44:21;;;;;;;2.95;2.30;;;;;;;8.21;100.00;100272.63;4967424;28;21253;-90
2024/04/03 04:46:51;;;;;;;3.10;2.30;;;;;;;8.45;100.00;100273.97;4970132;28;20156;-88
2024/04/03 04:49:18;;;;;;;3.22;2.40;;;;;;;8.32;100.00;100260.63;4968610;28;20158;-89
2024/04/03 04:51:44;;;;;;;4.97;2.85;;;;;;;8.27;100.00;100255.13;4983359;28;20313;-89
2024/04/03 04:54:11;;;;;;;5.28;2.70;;;;;;;8.55;100.00;100264.78;4980810;28;20037;-89
2024/04/03 04:56:39;;;;;;;7.93;2.40;;;;;;;8.26;100.00;100264.09;4968667;28;20098;-88
2024/04/03 04:59:05;;;;;;;2.67;2.13;;;;;;;8.31;100.00;100244.91;4983311;28;20635;-88
2024/04/03 05:01:33;;;;;;;2.75;2.33;;;;;;;8.52;100.00;100270.50;4995055;28;20648;-88
2024/04/03 05:04:02;;;;;;;3.17;1.98;;;;;;;8.57;100.00;100268.06;4964707;28;20041;-90
2024/04/03 05:06:28;;;;;;;2.50;2.30;;;;;;;8.31;100.00;100253.69;4995282;28;20021;-89
2024/04/03 05:08:56;;;;;;;2.33;2.13;;;;;;;8.44;100.00;100261.72;4991649;28;20272;-89
2024/04/03 05:11:22;;;;;;;3.20;2.40;;;;;;;8.53;100.00;100248.28;4983664;28;20480;-89
2024/04/03 05:13:48;;;;;;;2.72;2.30;;;;;;;8.19;100.00;100200.44;4990133;28;20286;-89
2024/04/03 05:16:15;;;;;;;2.78;2.28;;;;;;;8.40;100.00;100254.34;4985598;28;20507;-88
2024/04/03 05:18:44;;;;;;;2.47;2.28;;;;;;;8.29;100.00;100253.06;4971404;28;20546;-90
2024/04/03 05:21:10;;;;;;;3.65;2.45;;;;;;;8.39;100.00;100263.31;4968996;28;20029;-90
2024/04/03 05:23:36;;;;;;;2.35;2.13;;;;;;;8.25;100.00;100243.88;5003652;28;20241;-89
2024/04/03 05:26:04;;;;;;;4.85;2.60;;;;;;;8.11;100.00;100213.06;4981588;28;20039;-88
2024/04/03 05:28:32;;;;;;;2.85;2.35;;;;;;;8.28;100.00;100253.28;4998748;28;20711;-88
2024/04/03 05:31:09;;;;;;;4.70;2.75;;;;;;;8.46;100.00;100250.91;4980131;28;20451;-89
2024/04/03 05:33:36;;;;;;;5.13;2.78;;;;;;;8.60;100.00;100254.38;4995274;28;21626;-87
2024/04/03 05:36:03;;;;;;;3.00;2.65;;;;;;;8.49;100.00;100248.66;4982988;28;20112;-89
2024/04/03 05:38:29;;;;;;;4.25;2.50;;;;;;;8.63;100.00;100240.72;4981381;28;20111;-87
2024/04/03 05:40:56;;;;;;;5.13;2.38;;;;;;;8.42;100.00;100239.88;4963613;28;20056;-88
2024/04/03 05:43:23;;;;;;;3.28;2.80;;;;;;;8.37;100.00;100210.50;4966930;28;20076;-89
2024/04/03 05:45:50;;;;;;;3.10;2.80;;;;;;;8.51;100.00;100240.50;4983820;28;20119;-87
2024/04/03 05:48:16;;;;;;;2.83;2.55;;;;;;;8.07;100.00;100190.59;4981818;28;20048;-88
2024/04/03 05:50:41;;;;;;;4.00;3.00;;;;;;;8.19;100.00;100219.00;4966585;28;20033;-89
2024/04/03 05:53:07;;;;;;;5.00;2.95;;;;;;;8.49;100.00;100237.22;4981850;28;20171;-88
2024/04/03 05:55:33;;;;;;;5.82;3.15;;;;;;;8.45;100.00;100217.44;4980130;28;20465;-88
2024/04/03 05:58:00;;;;;;;7.07;2.78;;;;;;;8.49;100.00;100223.97;4964807;28;20021;-89
2024/04/03 06:03:24;;;;;;;3.72;2.55;;;;;;;8.38;100.00;100232.53;4977729;28;20151;-89
2024/04/03 06:05:57;;;;;;;3.28;2.65;;;;;;;8.33;100.00;100233.09;4969543;28;20249;-89
2024/04/03 06:08:23;;;;;;;4.95;2.80;;;;;;;8.39;100.00;100236.81;4972843;28;20030;-89
2024/04/03 06:10:49;;;;;;;6.35;2.63;;;;;;;8.42;100.00;100223.13;4993329;28;20136;-88
2024/04/03 06:13:15;;;;;;;4.07;2.97;;;;;;;8.60;100.00;100249.06;4979737;28;20416;-88
2024/04/03 06:15:40;;;;;;;2.78;2.47;;;;;;;8.53;100.00;100217.25;4980566;28;20317;-89
2024/04/03 06:18:06;;;;;;;4.63;2.80;;;;;;;8.74;100.00;100240.13;4979128;28;20419;-87
2024/04/03 06:20:31;;;;;;;4.20;2.80;;;;;;;8.68;100.00;100225.00;4963846;28;20036;-89
2024/04/03 06:22:56;;;;;;;2.60;2.40;;;;;;;8.77;100.00;100229.94;4966053;28;20431;-88
2024/04/03 06:25:22;;;;;;;7.93;2.67;;;;;;;8.65;100.00;100226.25;4979866;28;20348;-89
2024/04/03 06:27:48;;;;;;;7.25;2.75;;;;;;;8.63;100.00;100228.28;4993046;28;20033;-91
2024/04/03 06:30:14;;;;;;;4.35;2.83;;;;;;;8.61;100.00;100221.56;4963622;28;20946;-88
2024/04/03 06:32:41;;;;;;;5.63;2.63;;;;;;;8.69;100.00;100227.50;4965526;28;20033;-89
2024/04/03 06:35:08;;;;;;;4.88;3.17;;;;;;;8.82;100.00;100231.97;4963635;28;20547;-89
2024/04/03 06:37:34;;;;;;;4.28;3.10;;;;;;;8.77;100.00;100210.53;4980355;28;20046;-89
2024/04/03 06:40:00;;;;;;;4.68;3.45;;;;;;;8.91;100.00;100220.13;4993703;28;20156;-90
2024/04/03 06:42:25;;;;;;;4.10;2.97;;;;;;;8.67;100.00;100181.75;4979806;28;20074;-88
2024/04/03 06:44:52;;;;;;;7.55;3.20;;;;;;;9.02;100.00;100206.22;4980674;28;20022;-90
2024/04/03 06:47:18;;;;;;;4.32;2.80;;;;;;;9.15;100.00;100213.38;4981533;28;20033;-88
2024/04/03 06:49:43;;;;;;;8.02;3.40;;;;;;;8.99;100.00;100206.66;4966969;28;20087;-88
2024/04/03 06:52:08;;;;;;;3.83;3.13;;;;;;;9.01;100.00;100199.28;4987403;28;20025;-87
2024/04/03 06:54:34;;;;;;;4.28;3.40;;;;;;;8.93;100.00;100186.22;4973340;28;20033;-91
2024/04/03 06:57:01;;;;;;;3.28;2.88;;;;;;;9.05;100.00;100179.28;4971028;28;20038;-91
2024/04/03 06:59:27;;;;;;;5.43;3.00;;;;;;;9.05;100.00;100195.22;4989362;28;20033;-89
2024/04/03 07:01:52;;;;;;;5.00;3.13;;;;;;;8.86;100.00;100164.22;4967883;28;20032;-92
2024/04/03 07:04:18;;;;;;;4.93;3.17;;;;;;;9.16;100.00;100185.81;4968340;28;20621;-90
2024/04/03 07:06:52;;;;;;;4.28;2.95;;;;;;;9.17;100.00;100173.34;4990106;28;20260;-90
2024/04/03 07:09:18;;;;;;;4.60;2.85;;;;;;;9.28;100.00;100192.09;4980765;28;20117;-91
2024/04/03 07:11:43;;;;;;;4.78;3.20;;;;;;;9.39;100.00;100185.38;4990382;28;20079;-91
2024/04/03 07:14:09;;;;;;;6.15;3.28;;;;;;;9.35;100.00;100184.94;4977171;28;20069;-93
2024/04/03 07:16:34;;;;;;;5.10;3.22;;;;;;;9.32;100.00;100169.44;4992692;28;20164;-92
2024/04/03 07:19:00;;;;;;;3.28;2.97;;;;;;;9.32;100.00;100164.13;4988839;28;20394;-92
2024/04/03 07:21:25;;;;;;;7.95;3.03;;;;;;;9.21;100.00;100151.50;4995845;28;20029;-91
2024/04/03 07:23:51;;;;;;;3.55;2.70;;;;;;;9.42;100.00;100171.66;4993346;28;20116;-91
2024/04/03 07:26:19;;;;;;;3.85;2.78;;;;;;;9.40;100.00;100176.38;4996516;28;20037;-93
2024/04/03 07:28:45;;;;;;;4.60;2.67;;;;;;;9.48;100.00;100200.03;4976842;28;20493;-93
2024/04/03 07:31:11;;;;;;;2.78;2.42;;;;;;;9.41;100.00;100196.59;4977687;28;21528;-92
2024/04/03 07:33:37;;;;;;;4.13;3.10;;;;;;;8.90;100.00;100128.28;4991785;28;20053;-92
2024/04/03 07:36:03;;;;;;;3.17;2.50;;;;;;;9.36;100.00;100188.41;4990075;28;20136;-91
2024/04/03 07:38:30;;;;;;;3.60;2.47;;;;;;;9.52;100.00;100180.00;5003124;28;21349;-91
2024/04/03 07:40:56;;;;;;;2.50;2.10;;;;;;;9.52;100.00;100182.66;4993901;28;20038;-91
2024/04/03 07:43:21;;;;;;;4.00;2.65;;;;;;;9.60;100.00;100179.75;4977603;28;20034;-89
2024/04/03 07:45:47;;;;;;;3.97;2.70;;;;;;;9.54;100.00;100191.22;4994833;28;20037;-90
2024/04/03 07:48:12;;;;;;;5.20;2.70;;;;;;;9.51;100.00;100169.59;4979116;28;20037;-90
2024/04/03 07:50:41;;;;;;;5.43;2.80;;;;;;;9.58;100.00;100176.50;4996118;23;20137;-71
2024/04/03 07:53:07;;;;;;;5.30;2.80;;;;;;;9.62;100.00;100183.00;5015266;23;21447;-70
2024/04/03 07:55:37;;;;;;;3.40;2.25;;;;;;;9.81;100.00;100183.16;5017699;23;20248;-79
2024/04/03 07:58:02;;;;;;;5.90;2.97;;;;;;;9.78;100.00;100173.75;4977000;28;20073;-77
2024/04/03 08:00:28;;;;;;;4.72;2.58;;;;;;;9.87;100.00;100182.31;4971232;28;22310;-77
2024/04/03 08:02:53;;;;;;;4.20;2.53;;;;;;;9.89;100.00;100165.13;4974673;28;20046;-77
2024/04/03 08:05:19;;;;;;;6.25;2.92;;;;;;;10.12;100.00;100180.53;4973088;28;20026;-77
2024/04/03 08:07:44;;;;;;;4.05;2.42;;;;;;;10.14;100.00;100181.13;4975344;28;20033;-77
2024/04/03 08:10:11;;;;;;;3.15;2.47;;;;;;;10.32;100.00;100180.44;4973013;28;20174;-77
2024/04/03 08:12:38;;;;;;;8.25;2.60;;;;;;;10.26;100.00;100177.84;4976495;28;21662;-77
2024/04/03 08:15:05;;;;;;;2.63;2.40;;;;;;;10.34;100.00;100178.41;4977015;28;20041;-77
2024/04/03 08:17:31;;;;;;;6.30;3.03;;;;;;;10.27;100.00;100179.47;4976216;28;20025;-77
2024/04/03 08:19:57;;;;;;;4.28;2.58;;;;;;;10.23;100.00;100170.28;4975182;28;21632;-77
2024/04/03 08:22:23;;;;;;;4.95;2.22;;;;;;;10.36;100.00;100179.00;4975102;28;20033;-77
2024/04/03 08:24:50;;;;;;;3.65;2.10;;;;;;;10.24;100.00;100177.22;4977329;28;21358;-77
2024/04/03 08:27:16;;;;;;;2.20;2.10;;;;;;;10.35;100.00;100180.03;4975577;28;20041;-77
2024/04/03 08:29:46;;;;;;;2.58;2.38;;;;;;;10.22;100.00;100165.97;4960976;28;21029;-77
2024/04/03 08:32:14;;;;;;;4.45;2.30;;;;;;;10.11;100.00;100160.31;4973134;28;20056;-77
2024/04/03 08:34:39;;;;;;;5.63;2.53;;;;;;;10.29;100.00;100174.75;4976043;28;20495;-77
2024/04/03 08:37:06;;;;;;;3.22;2.70;;;;;;;10.31;100.00;100173.50;4962050;28;20309;-77
2024/04/03 08:39:32;;;;;;;3.05;2.38;;;;;;;10.25;100.00;100168.22;4972559;28;20227;-77
2024/04/03 08:42:00;;;;;;;3.65;2.20;;;;;;;10.20;100.00;100177.63;4970688;28;20439;-77
2024/04/03 08:44:31;;;;;;;5.00;2.60;;;;;;;10.10;100.00;100168.50;4963332;28;20037;-77
2024/04/03 08:46:57;;;;;;;5.32;2.95;;;;;;;10.13;100.00;100176.03;4975496;28;20041;-77
2024/04/03 08:49:34;;;;;;;2.75;2.50;;;;;;;9.99;100.00;100171.81;4971346;28;20037;-77
2024/04/03 08:52:02;;;;;;;3.45;2.22;;;;;;;10.08;100.00;100179.34;4972247;28;20444;-78
2024/04/03 08:54:28;;;;;;;4.30;2.78;;;;;;;10.24;100.00;100166.59;4974479;28;20092;-78
2024/04/03 08:56:58;;;;;;;6.30;2.80;;;;;;;10.12;100.00;100169.91;4975243;28;20037;-77
2024/04/03 08:59:24;;;;;;;5.60;2.47;;;;;;;10.06;100.00;100169.94;4974891;28;20588;-78
2024/04/03 09:01:51;;;;;;;3.40;2.35;;;;;;;10.19;100.00;100169.88;4972772;28;20033;-77
2024/04/03 09:04:21;;;;;;;4.13;2.50;;;;;;;10.24;100.00;100163.94;4975395;28;20080;-77
2024/04/03 09:06:46;;;;;;;6.07;2.83;;;;;;;10.23;100.00;100172.94;4972516;28;20037;-77
2024/04/03 09:09:20;;;;;;;3.13;2.70;;;;;;;10.11;100.00;100173.59;4974885;28;20060;-79
2024/04/03 09:11:48;;;;;;;3.78;2.35;;;;;;;10.31;100.00;100184.13;4973589;28;20156;-77
2024/04/03 09:14:24;;;;;;;3.33;2.60;;;;;;;10.28;100.00;100175.78;4979078;28;20048;-77
2024/04/03 09:16:57;;;;;;;6.45;2.55;;;;;;;10.18;100.00;100163.75;4967268;28;20072;-79
2024/04/03 09:19:22;;;;;;;3.90;2.30;;;;;;;10.33;100.00;100170.63;4977126;28;21773;-78
2024/04/03 09:21:48;;;;;;;4.82;2.70;;;;;;;10.23;100.00;100162.31;4976139;28;20712;-77
2024/04/03 09:24:13;;;;;;;3.45;2.25;;;;;;;10.22;100.00;100168.63;4973969;28;20032;-77
2024/04/03 09:26:45;;;;;;;2.72;2.33;;;;;;;10.19;100.00;100173.34;4974276;28;22396;-77
2024/04/03 09:29:15;;;;;;;5.57;2.40;;;;;;;10.29;100.00;100175.56;4963053;28;20065;-77
2024/04/03 09:31:42;;;;;;;3.05;2.33;;;;;;;10.25;100.00;100173.53;4958946;28;20116;-78
2024/04/03 09:34:10;;;;;;;4.90;2.72;;;;;;;10.17;100.00;100167.44;4978633;28;20253;-77
2024/04/03 09:36:36;;;;;;;4.72;2.60;;;;;;;10.19;100.00;100173.34;4976644;28;20602;-77
2024/04/03 09:39:02;;;;;;;2.50;2.30;;;;;;;10.21;100.00;100165.16;4961771;28;20028;-77
2024/04/03 09:41:30;;;;;;;2.33;2.00;;;;;;;10.18;100.00;100160.28;4974321;28;20022;-77
2024/04/03 09:44:02;;;;;;;2.83;2.03;;;;;;;10.20;100.00;100164.34;4976616;28;20037;-77
2024/04/03 09:46:54;;;;;;;4.28;2.35;;;;;;;10.37;100.00;100185.13;4964300;28;20033;-77
2024/04/03 09:49:27;;;;;;;2.85;2.10;;;;;;;10.27;100.00;100180.28;4951103;28;20092;-77
2024/04/03 09:51:54;;;;;;;4.65;2.30;;;;;;;10.26;100.00;100159.22;4974234;28;21148;-77
2024/04/03 09:54:22;;;;;;;3.47;2.40;;;;;;;10.26;100.00;100165.38;4973344;28;22627;-77
2024/04/03 09:56:48;;;;;;;2.63;2.40;;;;;;;10.43;100.00;100155.84;4992381;28;20072;-77
2024/04/03 09:59:16;;;;;;;3.83;2.50;;;;;;;10.63;100.00;100166.31;4993151;28;20036;-77
2024/04/03 10:01:42;;;;;;;5.70;2.42;;;;;;;10.56;100.00;100173.53;4993277;28;20032;-79
2024/04/03 10:04:11;;;;;;;3.97;2.10;;;;;;;10.57;100.00;100159.19;4992871;28;20044;-77
2024/04/03 10:06:38;;;;;;;2.08;1.98;;;;;;;10.36;100.00;100171.03;4992391;28;20032;-74
2024/04/03 10:09:22;;;;;;;2.47;2.28;;;;;;;10.30;100.00;100171.06;4991893;28;20048;-74
2024/04/03 10:11:48;;;;;;;2.35;2.15;;;;;;;10.32;100.00;100163.66;4991583;28;20025;-75
2024/04/03 10:14:32;;;;;;;2.42;2.22;;;;;;;10.23;100.00;100165.78;4983820;28;20033;-74
2024/04/03 10:16:59;;;;;;;2.92;2.35;;;;;;;10.42;100.00;100156.88;4993242;28;20068;-74
2024/04/03 10:19:31;;;;;;;2.95;2.30;;;;;;;10.61;100.00;100171.03;4993354;28;20029;-74
2024/04/03 10:21:56;;;;;;;2.40;2.10;;;;;;;10.67;100.00;100174.66;4991252;28;20025;-74
2024/04/03 10:24:22;;;;;;;2.60;2.00;;;;;;;10.60;100.00;100157.94;4990463;28;20056;-75
2024/04/03 10:26:49;;;;;;;2.05;1.90;;;;;;;10.61;100.00;100160.41;4992481;28;20875;-75
2024/04/03 10:29:15;;;;;;;2.25;2.08;;;;;;;10.68;100.00;100173.63;4992550;28;20128;-74
2024/04/03 10:31:45;;;;;;;3.28;2.08;;;;;;;10.79;100.00;100166.81;4989461;28;20032;-75
2024/04/03 10:34:11;;;;;;;2.22;2.00;;;;;;;10.84;100.00;100162.44;4978779;28;20068;-75
2024/04/03 10:36:36;;;;;;;2.13;2.03;;;;;;;10.78;100.00;100165.19;4991861;28;20163;-74
2024/04/03 10:39:02;;;;;;;2.10;1.98;;;;;;;10.90;100.00;100158.91;4990535;28;20043;-75
2024/04/03 10:41:27;;;;;;;2.50;2.30;;;;;;;11.09;100.00;100159.75;4959585;28;20406;-75
2024/04/03 10:43:53;;;;;;;3.60;2.58;;;;;;;11.12;100.00;100166.47;4990934;28;21823;-75
2024/04/03 10:46:26;;;;;;;3.88;2.63;;;;;;;10.99;100.00;100162.91;4994432;28;20037;-75
2024/04/03 10:48:58;;;;;;;3.67;2.40;;;;;;;11.22;100.00;100175.59;4989512;28;20056;-75
2024/04/03 10:51:25;;;;;;;2.55;2.30;;;;;;;11.25;100.00;100153.03;4972401;28;20068;-75
2024/04/03 10:53:50;;;;;;;2.15;2.05;;;;;;;11.47;100.00;100164.88;4993394;28;20056;-74
2024/04/03 10:56:18;;;;;;;2.60;2.40;;;;;;;11.37;100.00;100155.75;4987752;28;20059;-75
2024/04/03 10:58:46;;;;;;;4.95;2.70;;;;;;;11.52;100.00;100159.69;4987066;28;20055;-75
2024/04/03 11:01:13;;;;;;;3.90;2.40;;;;;;;11.68;100.00;100168.94;4991697;28;20118;-74
2024/04/03 11:03:42;;;;;;;3.42;2.50;;;;;;;11.97;100.00;100169.22;4990863;28;20519;-75
2024/04/03 11:06:09;;;;;;;2.63;2.17;;;;;;;12.06;100.00;100170.50;4991304;28;20067;-75
2024/04/03 11:08:36;;;;;;;2.90;2.70;;;;;;;12.07;100.00;100169.47;4989263;28;20040;-74
2024/04/03 11:11:07;;;;;;;3.80;2.55;;;;;;;11.94;100.00;100167.00;4986953;28;20038;-74
2024/04/03 11:13:32;;;;;;;3.15;2.85;;;;;;;11.85;100.00;100174.50;4972678;28;21139;-74
2024/04/03 11:15:58;;;;;;;2.92;2.63;;;;;;;11.57;100.00;100156.38;4992648;28;20060;-74
2024/04/03 11:18:25;;;;;;;2.78;2.45;;;;;;;11.69;100.00;100167.09;4990030;28;20136;-74
2024/04/03 11:20:50;;;;;;;2.80;2.50;;;;;;;11.56;100.00;100168.06;4991095;28;20029;-76
2024/04/03 11:23:16;;;;;;;2.72;2.50;;;;;;;11.44;100.00;100159.16;4989777;28;20063;-77
2024/04/03 11:25:41;;;;;;;3.85;2.60;;;;;;;11.48;100.00;100165.69;4990894;28;20039;-76